Time;durP1;ratioP1;P1;durP2;ratioP2;P2;SDS_P1;SDS_P2;PMS_P1;PMS_P2;Temp;Humidity;BMP_temperature;BMP_pressure;BME280_temperature;BME280_humidity;BME280_pressure;Samples;Min_cycle;Max_cycle;Signal;HPM_P1;HPM_P2
2022/12/25 00:06:58;;;;;;;4.43;2.47;;;;;;;21.70;56.67;100686.03;20855210;28;20040;-82
2022/12/25 00:16:58;;;;;;;4.80;2.43;;;;;;;21.67;56.88;100678.31;20876585;28;20067;-81
2022/12/25 00:27:00;;;;;;;3.40;2.15;;;;;;;21.66;56.76;100703.00;20861684;28;20037;-82
2022/12/25 00:37:01;;;;;;;2.83;2.15;;;;;;;21.63;56.86;100724.31;20876703;28;20040;-80
2022/12/25 00:47:02;;;;;;;3.47;2.25;;;;;;;21.63;56.75;100726.09;20858415;28;20048;-81
2022/12/25 00:57:03;;;;;;;2.95;2.10;;;;;;;21.60;56.83;100737.72;20867578;28;20044;-80
2022/12/25 01:07:04;;;;;;;4.15;2.13;;;;;;;21.58;56.92;100729.06;20883785;28;20499;-81
2022/12/25 01:17:05;;;;;;;2.83;2.20;;;;;;;21.55;57.27;100753.00;20872099;28;20165;-81
2022/12/25 01:27:05;;;;;;;2.58;2.08;;;;;;;21.54;57.06;100767.94;20882992;28;20468;-80
2022/12/25 01:37:06;;;;;;;2.55;1.80;;;;;;;21.53;56.92;100761.03;20903992;28;20079;-81
2022/12/25 01:47:06;;;;;;;2.58;1.80;;;;;;;21.50;57.17;100784.13;20891988;28;20041;-81
2022/12/25 01:57:13;;;;;;;1.98;1.77;;;;;;;21.48;57.03;100760.50;20868141;28;21652;-80
2022/12/25 02:07:16;;;;;;;2.65;2.08;;;;;;;21.47;56.91;100769.38;20870253;28;20037;-81
2022/12/25 02:17:31;;;;;;;2.35;2.05;;;;;;;21.45;56.92;100763.38;20857726;28;20117;-80
2022/12/25 02:27:44;;;;;;;2.33;1.70;;;;;;;21.43;56.89;100762.63;20879214;28;20041;-81
2022/12/25 02:37:53;;;;;;;2.40;1.60;;;;;;;21.42;56.92;100782.00;20855203;28;20049;-81
2022/12/25 03:08:40;;;;;;;2.42;1.50;;;;;;;21.36;56.91;100804.38;20853867;28;20068;-81
2022/12/25 03:18:41;;;;;;;1.98;1.40;;;;;;;21.34;57.25;100830.00;20866028;28;20075;-80
2022/12/25 03:28:42;;;;;;;2.10;1.60;;;;;;;21.32;57.21;100810.81;20846815;28;20064;-81
2022/12/25 04:41:52;;;;;;;2.03;1.48;;;;;;;21.20;57.15;100838.88;20863710;28;20045;-82
2022/12/25 04:51:53;;;;;;;1.83;1.40;;;;;;;21.17;56.96;100833.81;20858264;28;20518;-83
2022/12/25 05:01:56;;;;;;;2.55;1.40;;;;;;;21.18;56.71;100858.34;20867179;28;20415;-83
2022/12/25 05:11:56;;;;;;;1.83;1.30;;;;;;;21.18;56.88;100863.63;20856526;28;20044;-81
2022/12/25 05:21:57;;;;;;;1.58;1.40;;;;;;;21.23;56.37;100872.88;20847271;28;20092;-81
2022/12/25 05:31:59;;;;;;;1.75;1.40;;;;;;;21.30;56.78;100862.78;20835492;28;20415;-82
2022/12/25 05:42:00;;;;;;;1.80;1.50;;;;;;;21.33;56.22;100865.19;20833623;28;20053;-82
2022/12/25 05:52:00;;;;;;;1.60;1.30;;;;;;;21.39;56.34;100877.09;20842317;28;20044;-82
2022/12/25 06:02:01;;;;;;;1.50;1.40;;;;;;;21.43;56.35;100892.56;20839320;28;20443;-82
2022/12/25 06:12:01;;;;;;;1.60;1.40;;;;;;;21.47;56.13;100895.84;20851242;28;20045;-80
2022/12/25 06:22:03;;;;;;;1.60;1.40;;;;;;;21.50;56.92;100885.06;20875986;28;20479;-80
2022/12/25 06:32:03;;;;;;;1.73;1.40;;;;;;;21.54;56.76;100889.16;20870073;28;20050;-82
2022/12/25 06:42:04;;;;;;;1.42;1.33;;;;;;;21.57;56.41;100896.88;20864467;28;20101;-80
2022/12/25 06:52:04;;;;;;;2.00;1.48;;;;;;;21.62;56.50;100906.25;20860301;28;20037;-81
2022/12/25 07:02:12;;;;;;;4.05;1.48;;;;;;;21.65;56.85;100927.97;20840163;28;20068;-80
2022/12/25 07:12:17;;;;;;;2.13;1.50;;;;;;;21.69;56.54;100932.06;20842179;28;20131;-79
2022/12/25 07:22:18;;;;;;;3.20;1.60;;;;;;;21.74;56.29;100956.31;20817810;28;20783;-79
2022/12/25 07:32:18;;;;;;;3.55;2.42;;;;;;;21.77;56.80;100976.34;20846153;28;20407;-74
2022/12/25 07:42:19;;;;;;;6.65;3.30;;;;;;;21.35;51.16;100992.38;20815606;28;20087;-76
2022/12/25 07:52:19;;;;;;;9.45;4.50;;;;;;;21.40;50.80;100994.69;20837027;28;20318;-75
2022/12/25 08:02:27;;;;;;;10.18;4.78;;;;;;;21.54;51.74;101002.47;20835507;28;20045;-81
2022/12/25 08:12:27;;;;;;;10.18;4.13;;;;;;;21.67;53.17;101014.84;20842435;28;20558;-81
2022/12/25 08:22:29;;;;;;;8.95;3.70;;;;;;;21.80;55.51;101007.75;20817677;28;20044;-80
2022/12/25 08:32:32;;;;;;;6.13;4.03;;;;;;;21.91;55.86;101031.56;20816829;28;20377;-85
2022/12/25 08:42:33;;;;;;;8.77;4.10;;;;;;;22.02;56.27;101043.16;20832654;28;20056;-81
2022/12/25 08:52:34;;;;;;;10.38;5.13;;;;;;;22.10;55.11;101032.91;20823208;28;20075;-81
2022/12/25 09:02:34;;;;;;;11.57;4.28;;;;;;;22.21;55.98;101040.06;20802709;28;20142;-78
2022/12/25 09:12:35;;;;;;;12.07;5.38;;;;;;;22.01;43.99;101030.94;20808535;28;20033;-83
2022/12/25 09:22:35;;;;;;;7.78;4.45;;;;;;;22.23;53.26;101038.16;20828421;28;21128;-77
2022/12/25 09:32:39;;;;;;;9.98;4.40;;;;;;;22.31;54.98;101033.16;20809617;28;20049;-83
2022/12/25 09:42:40;;;;;;;10.20;4.13;;;;;;;22.39;55.54;101037.94;20827780;28;20045;-80
2022/12/25 09:52:45;;;;;;;8.93;4.07;;;;;;;22.53;55.83;101043.03;20813226;28;20581;-85
2022/12/25 10:03:01;;;;;;;11.77;4.43;;;;;;;22.62;55.08;101038.88;20827415;28;20056;-82
2022/12/25 10:13:26;;;;;;;10.70;5.53;;;;;;;22.53;51.71;101032.50;20821081;28;20041;-79
2022/12/25 10:23:33;;;;;;;11.15;5.25;;;;;;;22.66;53.12;101028.94;20817952;28;20443;-78
2022/12/25 10:33:34;;;;;;;11.45;5.40;;;;;;;22.76;53.39;101023.81;20830512;28;20033;-81
2022/12/25 10:43:47;;;;;;;10.85;5.20;;;;;;;22.85;53.43;101016.06;20822677;28;20040;-79
2022/12/25 10:53:48;;;;;;;10.30;4.75;;;;;;;22.83;52.10;101014.50;20799962;28;20045;-76
2022/12/25 11:03:51;;;;;;;8.80;5.53;;;;;;;22.65;43.91;101006.13;20807602;28;20090;-75
2022/12/25 11:13:54;;;;;;;14.50;6.60;;;;;;;22.77;47.57;100999.13;20831798;28;20629;-76
2022/12/25 11:24:00;;;;;;;8.43;4.90;;;;;;;22.84;48.03;100990.59;20806780;28;20048;-81
2022/12/25 11:34:23;;;;;;;12.40;4.50;;;;;;;22.90;48.97;100973.47;20817254;28;20504;-76
2022/12/25 11:44:35;;;;;;;10.90;5.47;;;;;;;23.00;49.80;100973.63;20817406;28;20050;-79
2022/12/25 11:54:48;;;;;;;13.40;5.10;;;;;;;23.07;50.57;100969.56;20808604;28;20144;-80
2022/12/25 12:04:54;;;;;;;9.82;4.80;;;;;;;23.13;50.70;100969.09;20826428;28;20045;-76
2022/12/25 12:15:07;;;;;;;12.48;5.60;;;;;;;23.20;51.32;100955.44;20823097;28;20095;-79
2022/12/25 12:25:15;;;;;;;14.88;5.57;;;;;;;23.22;51.31;100964.91;20864119;28;20446;-75
2022/12/25 12:35:27;;;;;;;12.85;5.32;;;;;;;23.26;50.99;100969.00;20839811;28;20242;-78
2022/12/25 12:45:31;;;;;;;10.27;3.58;;;;;;;23.13;47.25;100963.81;20829411;28;20131;-79
2022/12/25 12:55:34;;;;;;;9.75;4.18;;;;;;;23.07;45.89;100979.25;20853480;28;20037;-80
2022/12/25 13:05:56;;;;;;;6.88;3.30;;;;;;;22.98;43.94;100975.53;20846131;28;20041;-78
2022/12/25 13:15:57;;;;;;;6.85;3.47;;;;;;;22.92;45.56;100990.03;20844224;28;20045;-85
2022/12/25 13:26:03;;;;;;;8.82;3.78;;;;;;;22.99;50.08;100978.03;20841554;28;20053;-85
2022/12/25 13:36:11;;;;;;;9.98;3.67;;;;;;;23.03;53.04;100981.28;20828650;28;20048;-83
2022/12/25 13:46:15;;;;;;;13.77;4.43;;;;;;;22.99;52.58;100987.78;20841361;28;20147;-91
2022/12/25 13:56:16;;;;;;;7.68;3.53;;;;;;;23.04;55.27;100996.19;20845102;28;20048;-80
2022/12/25 14:06:16;;;;;;;8.15;3.72;;;;;;;23.09;56.05;100994.03;20869904;28;20041;-83
2022/12/25 14:16:19;;;;;;;13.82;3.60;;;;;;;23.09;56.24;100988.75;20838016;28;21000;-85
2022/12/25 14:26:28;;;;;;;10.57;3.72;;;;;;;23.13;56.91;101002.56;20859427;28;20048;-85
2022/12/25 14:36:32;;;;;;;13.73;3.80;;;;;;;23.16;57.09;101012.91;20835072;28;20049;-88
2022/12/25 14:46:33;;;;;;;8.82;3.10;;;;;;;23.19;57.54;101010.06;20838021;28;20051;-85
2022/12/25 14:56:45;;;;;;;7.45;3.60;;;;;;;23.20;57.47;101011.75;20826492;28;20091;-88
2022/12/25 15:06:53;;;;;;;6.32;2.88;;;;;;;23.25;58.25;101020.16;20818926;28;20044;-88
2022/12/25 15:16:56;;;;;;;6.15;3.28;;;;;;;23.25;58.59;101014.88;20853138;28;20592;-85
2022/12/25 15:26:59;;;;;;;6.28;3.13;;;;;;;23.28;58.80;101021.75;20848042;28;20044;-80
2022/12/25 15:36:59;;;;;;;10.82;6.30;;;;;;;23.08;47.71;101015.28;20820261;28;20908;-84
2022/12/25 15:47:00;;;;;;;8.65;5.28;;;;;;;22.79;49.65;101032.38;20843899;28;20130;-84
2022/12/25 15:57:03;;;;;;;13.55;6.13;;;;;;;22.59;47.82;101017.16;20838370;28;20206;-83
2022/12/25 16:07:12;;;;;;;9.13;4.53;;;;;;;22.77;52.12;101025.53;20851449;28;20057;-77
2022/12/25 16:17:14;;;;;;;9.48;4.65;;;;;;;22.81;53.25;101026.97;20848249;28;20407;-80
2022/12/25 16:27:15;;;;;;;5.90;3.80;;;;;;;22.83;53.45;101007.41;20825430;28;20041;-80
2022/12/25 16:37:15;;;;;;;7.85;4.10;;;;;;;22.87;53.55;101002.75;20854483;28;20839;-78
2022/12/25 16:47:17;;;;;;;7.60;3.78;;;;;;;22.87;54.35;100994.81;20845124;28;20067;-78
2022/12/25 16:57:17;;;;;;;6.37;3.97;;;;;;;22.89;54.00;100999.97;20828543;28;20053;-77
2022/12/25 17:07:20;;;;;;;6.28;3.90;;;;;;;22.79;48.73;100987.47;20813503;28;20053;-82
2022/12/25 17:17:20;;;;;;;5.45;3.63;;;;;;;22.75;47.79;100993.09;20839127;28;20040;-78
2022/12/25 17:27:21;;;;;;;7.45;4.00;;;;;;;22.67;46.35;100998.97;20830539;28;20040;-76
2022/12/25 17:37:23;;;;;;;9.50;4.20;;;;;;;22.62;46.19;100987.88;20830583;28;20041;-81
2022/12/25 17:47:24;;;;;;;;;;;;;;;22.55;46.61;100961.94;20845040;28;20045;-77
2022/12/25 17:57:25;;;;;;;13.23;4.10;;;;;;;22.57;48.69;100961.84;20790229;28;19925;-84
2022/12/25 18:07:25;;;;;;;9.88;3.60;;;;;;;22.58;50.66;100974.06;20805142;28;20060;-85
2022/12/25 18:17:27;;;;;;;11.10;4.43;;;;;;;22.55;51.56;100972.50;20844405;28;20045;-93
2022/12/25 18:27:28;;;;;;;7.57;3.37;;;;;;;22.55;51.78;100966.38;20854002;28;20048;-93
2022/12/25 18:37:28;;;;;;;7.68;4.10;;;;;;;22.58;52.36;100963.50;20841394;28;20144;-87
2022/12/25 18:47:32;;;;;;;8.48;3.78;;;;;;;22.61;52.82;100955.38;20862961;28;21711;-90
2022/12/25 18:57:35;;;;;;;7.57;4.32;;;;;;;22.62;52.61;100958.84;20852424;28;20060;-95
2022/12/25 19:07:35;;;;;;;6.32;4.68;;;;;;;22.64;53.17;100943.75;20887540;28;20037;-90
2022/12/25 19:17:37;;;;;;;6.60;4.63;;;;;;;22.65;53.11;100932.22;20890161;28;20092;-93
2022/12/25 19:27:38;;;;;;;7.33;4.73;;;;;;;22.65;53.22;100946.25;20874589;28;20044;-90
2022/12/25 19:37:44;;;;;;;6.85;4.50;;;;;;;22.66;52.99;100940.03;20862114;28;20053;-84
2022/12/25 19:47:46;;;;;;;6.90;4.65;;;;;;;22.67;53.07;100948.81;20854759;28;20951;-84
2022/12/25 19:57:50;;;;;;;;;;;;;;;22.63;53.26;100934.13;20853055;28;20045;-82
2022/12/25 20:07:50;;;;;;;7.43;4.88;;;;;;;22.59;53.49;100896.56;20882058;28;19921;-85
2022/12/25 20:17:53;;;;;;;8.68;5.53;;;;;;;22.55;53.74;100874.00;20867980;28;20053;-81
2022/12/25 20:27:54;;;;;;;14.80;5.95;;;;;;;22.49;52.49;100906.16;20786214;28;20172;-90
2022/12/25 20:37:54;;;;;;;12.73;5.78;;;;;;;22.43;52.88;100894.25;20787702;28;20055;-85
2022/12/25 20:47:58;;;;;;;9.48;5.28;;;;;;;22.41;53.59;100905.88;20827816;28;20044;-82
2022/12/25 20:57:59;;;;;;;11.07;5.60;;;;;;;22.38;54.08;100891.13;20854095;28;20152;-82
2022/12/25 21:07:59;;;;;;;9.25;5.20;;;;;;;22.36;54.27;100893.84;20857992;28;20063;-84
2022/12/25 21:18:01;;;;;;;8.70;5.57;;;;;;;22.34;54.55;100887.00;20850071;28;20041;-85
2022/12/25 21:28:02;;;;;;;10.97;5.40;;;;;;;22.31;54.53;100893.31;20851349;28;20127;-89
2022/12/25 21:38:03;;;;;;;10.10;5.75;;;;;;;22.30;54.74;100883.75;20870807;28;20060;-83
2022/12/25 21:48:04;;;;;;;9.38;5.30;;;;;;;22.28;54.73;100872.47;20872529;28;20105;-85
2022/12/25 21:58:06;;;;;;;10.73;5.78;;;;;;;22.27;54.67;100875.22;20872737;28;20525;-85
2022/12/25 22:08:06;;;;;;;8.52;5.30;;;;;;;22.25;54.94;100901.69;20888846;28;20047;-90
2022/12/25 22:28:27;;;;;;;9.30;5.28;;;;;;;22.22;54.91;100894.03;20883666;28;20056;-83
2022/12/25 22:38:28;;;;;;;9.48;5.13;;;;;;;22.21;55.47;100890.53;20854103;28;20049;-84
2022/12/25 22:48:29;;;;;;;10.50;4.82;;;;;;;22.18;55.37;100882.00;20862347;28;20039;-83
2022/12/25 22:58:29;;;;;;;6.95;5.05;;;;;;;22.17;55.42;100891.72;20862623;28;20045;-90
2022/12/25 23:08:31;;;;;;;8.23;4.97;;;;;;;22.16;55.38;100871.56;20873792;28;20037;-84
2022/12/25 23:39:10;;;;;;;7.10;4.43;;;;;;;22.12;55.49;100856.94;20869960;28;20155;-89
2022/12/25 23:49:11;;;;;;;7.80;4.88;;;;;;;22.12;55.77;100858.72;20870978;28;20041;-88
2022/12/25 23:59:12;;;;;;;7.45;4.88;;;;;;;22.08;55.66;100860.72;20851105;28;20041;-82
